sensor_id;sensor_type;location;lat;lon;timestamp;P1;durP1;ratioP1;P2;durP2;ratioP2
76131;SDS011;64877;50.994;13.650;2023-04-01T00:00:41;3.92;;;1.00;;
76131;SDS011;64877;50.994;13.650;2023-04-01T00:03:06;2.83;;;0.77;;
76131;SDS011;64877;50.994;13.650;2023-04-01T00:05:32;4.50;;;0.95;;
76131;SDS011;64877;50.994;13.650;2023-04-01T00:07:57;3.20;;;0.70;;
76131;SDS011;64877;50.994;13.650;2023-04-01T00:10:22;1.48;;;0.57;;
76131;SDS011;64877;50.994;13.650;2023-04-01T00:12:48;1.38;;;0.50;;
76131;SDS011;64877;50.994;13.650;2023-04-01T00:15:13;2.47;;;0.60;;
76131;SDS011;64877;50.994;13.650;2023-04-01T00:17:39;3.15;;;0.50;;
76131;SDS011;64877;50.994;13.650;2023-04-01T00:20:04;3.60;;;0.68;;
76131;SDS011;64877;50.994;13.650;2023-04-01T00:22:32;4.75;;;0.60;;
76131;SDS011;64877;50.994;13.650;2023-04-01T00:24:58;1.27;;;0.50;;
76131;SDS011;64877;50.994;13.650;2023-04-01T00:27:24;2.40;;;0.63;;
76131;SDS011;64877;50.994;13.650;2023-04-01T00:29:49;2.05;;;0.60;;
76131;SDS011;64877;50.994;13.650;2023-04-01T00:32:15;3.15;;;0.85;;
76131;SDS011;64877;50.994;13.650;2023-04-01T00:34:40;2.22;;;0.77;;
76131;SDS011;64877;50.994;13.650;2023-04-01T00:37:06;1.63;;;0.55;;
76131;SDS011;64877;50.994;13.650;2023-04-01T00:39:33;3.55;;;0.85;;
76131;SDS011;64877;50.994;13.650;2023-04-01T00:42:00;2.15;;;0.90;;
76131;SDS011;64877;50.994;13.650;2023-04-01T00:44:27;4.55;;;0.90;;
76131;SDS011;64877;50.994;13.650;2023-04-01T00:46:54;3.65;;;0.63;;
76131;SDS011;64877;50.994;13.650;2023-04-01T00:49:22;3.92;;;0.65;;
76131;SDS011;64877;50.994;13.650;2023-04-01T00:51:52;2.45;;;0.60;;
76131;SDS011;64877;50.994;13.650;2023-04-01T00:54:20;2.53;;;0.60;;
76131;SDS011;64877;50.994;13.650;2023-04-01T00:56:48;6.38;;;1.35;;
76131;SDS011;64877;50.994;13.650;2023-04-01T00:59:31;3.95;;;0.40;;
76131;SDS011;64877;50.994;13.650;2023-04-01T01:02:04;2.72;;;0.60;;
76131;SDS011;64877;50.994;13.650;2023-04-01T01:04:32;3.92;;;0.95;;
76131;SDS011;64877;50.994;13.650;2023-04-01T01:09:38;2.33;;;0.70;;
76131;SDS011;64877;50.994;13.650;2023-04-01T01:12:28;2.95;;;0.57;;
76131;SDS011;64877;50.994;13.650;2023-04-01T01:23:48;2.78;;;0.60;;
76131;SDS011;64877;50.994;13.650;2023-04-01T01:31:37;2.25;;;0.68;;
76131;SDS011;64877;50.994;13.650;2023-04-01T01:34:22;1.83;;;0.50;;
76131;SDS011;64877;50.994;13.650;2023-04-01T01:37:01;3.88;;;1.05;;
76131;SDS011;64877;50.994;13.650;2023-04-01T01:39:33;4.20;;;0.63;;
76131;SDS011;64877;50.994;13.650;2023-04-01T01:42:02;2.45;;;0.80;;
76131;SDS011;64877;50.994;13.650;2023-04-01T01:44:31;3.97;;;0.73;;
76131;SDS011;64877;50.994;13.650;2023-04-01T01:46:58;1.33;;;0.50;;
76131;SDS011;64877;50.994;13.650;2023-04-01T01:49:25;3.70;;;0.60;;
76131;SDS011;64877;50.994;13.650;2023-04-01T01:51:52;1.80;;;0.70;;
76131;SDS011;64877;50.994;13.650;2023-04-01T01:54:18;3.88;;;0.90;;
76131;SDS011;64877;50.994;13.650;2023-04-01T01:56:44;2.17;;;0.50;;
76131;SDS011;64877;50.994;13.650;2023-04-01T01:59:14;2.63;;;0.75;;
76131;SDS011;64877;50.994;13.650;2023-04-01T02:01:45;2.58;;;0.70;;
76131;SDS011;64877;50.994;13.650;2023-04-01T02:04:14;2.45;;;0.70;;
76131;SDS011;64877;50.994;13.650;2023-04-01T02:09:32;3.97;;;0.90;;
76131;SDS011;64877;50.994;13.650;2023-04-01T02:12:00;2.63;;;0.70;;
76131;SDS011;64877;50.994;13.650;2023-04-01T02:14:49;4.57;;;0.80;;
76131;SDS011;64877;50.994;13.650;2023-04-01T02:17:24;4.60;;;1.15;;
76131;SDS011;64877;50.994;13.650;2023-04-01T02:19:59;3.35;;;0.50;;
76131;SDS011;64877;50.994;13.650;2023-04-01T02:22:29;5.97;;;0.82;;
76131;SDS011;64877;50.994;13.650;2023-04-01T02:24:59;1.65;;;0.50;;
76131;SDS011;64877;50.994;13.650;2023-04-01T02:27:30;2.35;;;0.80;;
76131;SDS011;64877;50.994;13.650;2023-04-01T02:29:56;3.72;;;0.88;;
76131;SDS011;64877;50.994;13.650;2023-04-01T02:32:23;5.78;;;1.00;;
76131;SDS011;64877;50.994;13.650;2023-04-01T02:34:49;2.53;;;0.80;;
76131;SDS011;64877;50.994;13.650;2023-04-01T02:37:15;2.13;;;0.60;;
76131;SDS011;64877;50.994;13.650;2023-04-01T02:39:41;1.70;;;0.45;;
76131;SDS011;64877;50.994;13.650;2023-04-01T02:42:07;2.40;;;0.65;;
76131;SDS011;64877;50.994;13.650;2023-04-01T02:44:33;2.45;;;0.68;;
76131;SDS011;64877;50.994;13.650;2023-04-01T02:46:58;5.82;;;0.90;;
76131;SDS011;64877;50.994;13.650;2023-04-01T02:49:24;2.25;;;0.70;;
76131;SDS011;64877;50.994;13.650;2023-04-01T02:51:49;3.50;;;0.80;;
76131;SDS011;64877;50.994;13.650;2023-04-01T02:54:16;3.25;;;0.70;;
76131;SDS011;64877;50.994;13.650;2023-04-01T02:56:42;3.13;;;0.90;;
76131;SDS011;64877;50.994;13.650;2023-04-01T02:59:07;2.30;;;0.70;;
76131;SDS011;64877;50.994;13.650;2023-04-01T03:01:33;3.65;;;0.80;;
76131;SDS011;64877;50.994;13.650;2023-04-01T03:03:58;6.22;;;0.68;;
76131;SDS011;64877;50.994;13.650;2023-04-01T03:06:24;4.97;;;0.90;;
76131;SDS011;64877;50.994;13.650;2023-04-01T03:08:49;3.45;;;1.05;;
76131;SDS011;64877;50.994;13.650;2023-04-01T03:11:15;2.83;;;0.60;;
76131;SDS011;64877;50.994;13.650;2023-04-01T03:13:40;4.43;;;0.82;;
76131;SDS011;64877;50.994;13.650;2023-04-01T03:16:06;5.50;;;0.80;;
76131;SDS011;64877;50.994;13.650;2023-04-01T03:18:31;5.00;;;0.68;;
76131;SDS011;64877;50.994;13.650;2023-04-01T03:20:57;4.07;;;1.00;;
76131;SDS011;64877;50.994;13.650;2023-04-01T03:23:22;3.20;;;1.15;;
76131;SDS011;64877;50.994;13.650;2023-04-01T03:25:49;5.15;;;0.77;;
76131;SDS011;64877;50.994;13.650;2023-04-01T03:28:16;3.72;;;1.08;;
76131;SDS011;64877;50.994;13.650;2023-04-01T03:30:41;5.10;;;0.77;;
76131;SDS011;64877;50.994;13.650;2023-04-01T03:33:07;3.15;;;0.88;;
76131;SDS011;64877;50.994;13.650;2023-04-01T03:35:32;4.47;;;1.15;;
76131;SDS011;64877;50.994;13.650;2023-04-01T03:38:00;4.05;;;0.70;;
76131;SDS011;64877;50.994;13.650;2023-04-01T03:40:26;3.25;;;0.80;;
76131;SDS011;64877;50.994;13.650;2023-04-01T03:42:51;2.28;;;0.60;;
76131;SDS011;64877;50.994;13.650;2023-04-01T03:45:17;2.92;;;0.70;;
76131;SDS011;64877;50.994;13.650;2023-04-01T03:47:42;2.25;;;0.70;;
76131;SDS011;64877;50.994;13.650;2023-04-01T03:50:08;6.90;;;1.00;;
76131;SDS011;64877;50.994;13.650;2023-04-01T03:52:34;3.78;;;0.85;;
76131;SDS011;64877;50.994;13.650;2023-04-01T03:55:00;4.30;;;0.80;;
76131;SDS011;64877;50.994;13.650;2023-04-01T03:57:26;4.18;;;0.80;;
76131;SDS011;64877;50.994;13.650;2023-04-01T03:59:52;1.75;;;0.63;;
76131;SDS011;64877;50.994;13.650;2023-04-01T04:02:17;4.25;;;0.90;;
76131;SDS011;64877;50.994;13.650;2023-04-01T04:04:43;4.65;;;0.93;;
76131;SDS011;64877;50.994;13.650;2023-04-01T04:07:08;3.53;;;0.90;;
76131;SDS011;64877;50.994;13.650;2023-04-01T04:09:34;6.25;;;0.95;;
76131;SDS011;64877;50.994;13.650;2023-04-01T04:11:59;4.40;;;0.70;;
76131;SDS011;64877;50.994;13.650;2023-04-01T04:14:25;3.47;;;0.88;;
76131;SDS011;64877;50.994;13.650;2023-04-01T04:16:51;1.90;;;0.65;;
76131;SDS011;64877;50.994;13.650;2023-04-01T04:19:17;4.03;;;0.70;;
76131;SDS011;64877;50.994;13.650;2023-04-01T04:21:42;5.55;;;1.05;;
76131;SDS011;64877;50.994;13.650;2023-04-01T04:24:08;3.72;;;0.93;;
76131;SDS011;64877;50.994;13.650;2023-04-01T04:26:34;4.68;;;1.00;;
76131;SDS011;64877;50.994;13.650;2023-04-01T04:28:59;3.47;;;0.90;;
76131;SDS011;64877;50.994;13.650;2023-04-01T04:31:25;4.25;;;1.30;;
76131;SDS011;64877;50.994;13.650;2023-04-01T04:33:51;3.53;;;0.80;;
76131;SDS011;64877;50.994;13.650;2023-04-01T04:36:17;3.25;;;0.70;;
76131;SDS011;64877;50.994;13.650;2023-04-01T04:38:44;3.45;;;0.80;;
76131;SDS011;64877;50.994;13.650;2023-04-01T04:41:10;3.28;;;0.70;;
76131;SDS011;64877;50.994;13.650;2023-04-01T04:43:36;5.50;;;0.95;;
76131;SDS011;64877;50.994;13.650;2023-04-01T04:46:08;4.00;;;0.65;;
76131;SDS011;64877;50.994;13.650;2023-04-01T04:48:34;10.43;;;1.10;;
76131;SDS011;64877;50.994;13.650;2023-04-01T04:51:00;4.78;;;0.70;;
76131;SDS011;64877;50.994;13.650;2023-04-01T04:53:26;2.55;;;0.88;;
76131;SDS011;64877;50.994;13.650;2023-04-01T04:55:52;2.47;;;1.00;;
76131;SDS011;64877;50.994;13.650;2023-04-01T04:58:18;6.28;;;0.73;;
76131;SDS011;64877;50.994;13.650;2023-04-01T05:00:44;3.28;;;0.63;;
76131;SDS011;64877;50.994;13.650;2023-04-01T05:03:10;3.85;;;0.73;;
76131;SDS011;64877;50.994;13.650;2023-04-01T05:05:37;2.33;;;0.75;;
76131;SDS011;64877;50.994;13.650;2023-04-01T05:08:02;2.58;;;0.70;;
76131;SDS011;64877;50.994;13.650;2023-04-01T05:10:28;3.53;;;0.70;;
76131;SDS011;64877;50.994;13.650;2023-04-01T05:12:54;2.92;;;0.60;;
76131;SDS011;64877;50.994;13.650;2023-04-01T05:15:19;1.63;;;0.40;;
76131;SDS011;64877;50.994;13.650;2023-04-01T05:17:45;2.47;;;0.68;;
76131;SDS011;64877;50.994;13.650;2023-04-01T05:20:11;1.80;;;0.50;;
76131;SDS011;64877;50.994;13.650;2023-04-01T05:22:38;4.30;;;0.80;;
76131;SDS011;64877;50.994;13.650;2023-04-01T05:25:04;2.03;;;0.60;;
76131;SDS011;64877;50.994;13.650;2023-04-01T05:27:32;2.00;;;0.50;;
76131;SDS011;64877;50.994;13.650;2023-04-01T05:29:58;2.25;;;0.50;;
76131;SDS011;64877;50.994;13.650;2023-04-01T05:32:23;2.85;;;0.63;;
76131;SDS011;64877;50.994;13.650;2023-04-01T05:34:52;3.45;;;0.55;;
76131;SDS011;64877;50.994;13.650;2023-04-01T05:37:18;1.85;;;0.55;;
76131;SDS011;64877;50.994;13.650;2023-04-01T05:39:44;2.97;;;0.60;;
76131;SDS011;64877;50.994;13.650;2023-04-01T05:42:10;2.17;;;0.52;;
76131;SDS011;64877;50.994;13.650;2023-04-01T05:44:35;2.58;;;0.52;;
76131;SDS011;64877;50.994;13.650;2023-04-01T05:47:01;3.00;;;0.80;;
76131;SDS011;64877;50.994;13.650;2023-04-01T05:49:28;1.45;;;0.65;;
76131;SDS011;64877;50.994;13.650;2023-04-01T05:51:53;2.53;;;0.70;;
76131;SDS011;64877;50.994;13.650;2023-04-01T05:54:19;2.83;;;0.70;;
76131;SDS011;64877;50.994;13.650;2023-04-01T05:56:45;2.92;;;0.68;;
76131;SDS011;64877;50.994;13.650;2023-04-01T05:59:10;6.40;;;0.70;;
76131;SDS011;64877;50.994;13.650;2023-04-01T06:01:36;2.85;;;0.80;;
76131;SDS011;64877;50.994;13.650;2023-04-01T06:04:02;4.18;;;0.93;;
76131;SDS011;64877;50.994;13.650;2023-04-01T06:06:28;2.70;;;0.63;;
76131;SDS011;64877;50.994;13.650;2023-04-01T06:08:57;3.47;;;0.60;;
76131;SDS011;64877;50.994;13.650;2023-04-01T06:11:37;2.85;;;0.60;;
76131;SDS011;64877;50.994;13.650;2023-04-01T06:34:03;3.55;;;0.80;;
76131;SDS011;64877;50.994;13.650;2023-04-01T06:56:18;4.47;;;0.77;;
76131;SDS011;64877;50.994;13.650;2023-04-01T06:58:48;3.00;;;0.60;;
76131;SDS011;64877;50.994;13.650;2023-04-01T07:01:19;2.22;;;0.40;;
76131;SDS011;64877;50.994;13.650;2023-04-01T07:03:50;2.78;;;0.93;;
76131;SDS011;64877;50.994;13.650;2023-04-01T07:09:19;4.13;;;0.93;;
76131;SDS011;64877;50.994;13.650;2023-04-01T07:11:47;6.07;;;0.77;;
76131;SDS011;64877;50.994;13.650;2023-04-01T07:14:18;2.55;;;0.60;;
76131;SDS011;64877;50.994;13.650;2023-04-01T07:19:34;2.63;;;0.50;;
76131;SDS011;64877;50.994;13.650;2023-04-01T07:22:17;2.88;;;0.45;;
76131;SDS011;64877;50.994;13.650;2023-04-01T07:24:55;4.90;;;1.15;;
76131;SDS011;64877;50.994;13.650;2023-04-01T07:29:48;4.13;;;1.90;;
76131;SDS011;64877;50.994;13.650;2023-04-01T07:38:15;3.15;;;0.50;;
76131;SDS011;64877;50.994;13.650;2023-04-01T07:40:56;1.60;;;0.60;;
76131;SDS011;64877;50.994;13.650;2023-04-01T07:48:56;3.47;;;0.77;;
76131;SDS011;64877;50.994;13.650;2023-04-01T07:51:37;1.45;;;0.47;;
76131;SDS011;64877;50.994;13.650;2023-04-01T07:57:23;3.50;;;0.60;;
76131;SDS011;64877;50.994;13.650;2023-04-01T08:05:19;3.47;;;0.55;;
76131;SDS011;64877;50.994;13.650;2023-04-01T08:10:52;1.85;;;0.52;;
76131;SDS011;64877;50.994;13.650;2023-04-01T08:14:00;1.58;;;0.55;;
76131;SDS011;64877;50.994;13.650;2023-04-01T08:21:47;5.63;;;0.85;;
76131;SDS011;64877;50.994;13.650;2023-04-01T08:24:27;2.42;;;0.68;;
76131;SDS011;64877;50.994;13.650;2023-04-01T08:26:59;1.27;;;0.50;;
76131;SDS011;64877;50.994;13.650;2023-04-01T08:29:34;3.63;;;1.13;;
76131;SDS011;64877;50.994;13.650;2023-04-01T08:34:38;4.30;;;0.80;;
76131;SDS011;64877;50.994;13.650;2023-04-01T08:37:08;1.98;;;0.50;;
76131;SDS011;64877;50.994;13.650;2023-04-01T08:39:41;1.80;;;0.50;;
76131;SDS011;64877;50.994;13.650;2023-04-01T08:43:12;1.23;;;0.40;;
76131;SDS011;64877;50.994;13.650;2023-04-01T08:48:08;3.22;;;1.13;;
76131;SDS011;64877;50.994;13.650;2023-04-01T09:01:39;2.78;;;0.60;;
76131;SDS011;64877;50.994;13.650;2023-04-01T09:07:04;0.95;;;0.40;;
76131;SDS011;64877;50.994;13.650;2023-04-01T09:12:44;2.50;;;0.60;;
76131;SDS011;64877;50.994;13.650;2023-04-01T09:15:24;1.15;;;0.40;;
76131;SDS011;64877;50.994;13.650;2023-04-01T09:25:53;0.98;;;0.40;;
76131;SDS011;64877;50.994;13.650;2023-04-01T09:28:34;3.08;;;1.67;;
76131;SDS011;64877;50.994;13.650;2023-04-01T09:42:44;2.90;;;0.50;;
76131;SDS011;64877;50.994;13.650;2023-04-01T09:45:23;1.70;;;0.50;;
76131;SDS011;64877;50.994;13.650;2023-04-01T09:50:29;3.03;;;0.50;;
76131;SDS011;64877;50.994;13.650;2023-04-01T09:53:12;1.90;;;0.30;;
76131;SDS011;64877;50.994;13.650;2023-04-01T10:21:03;4.60;;;0.70;;
76131;SDS011;64877;50.994;13.650;2023-04-01T10:38:06;2.92;;;1.13;;
76131;SDS011;64877;50.994;13.650;2023-04-01T11:19:02;2.13;;;0.50;;
76131;SDS011;64877;50.994;13.650;2023-04-01T11:21:46;0.90;;;0.43;;
76131;SDS011;64877;50.994;13.650;2023-04-01T11:46:12;2.90;;;0.80;;
76131;SDS011;64877;50.994;13.650;2023-04-01T11:51:40;2.78;;;0.80;;
76131;SDS011;64877;50.994;13.650;2023-04-01T11:54:28;1.65;;;0.60;;
76131;SDS011;64877;50.994;13.650;2023-04-01T12:05:58;1.85;;;0.50;;
76131;SDS011;64877;50.994;13.650;2023-04-01T12:11:26;2.15;;;0.55;;
76131;SDS011;64877;50.994;13.650;2023-04-01T12:19:25;1.38;;;0.45;;
76131;SDS011;64877;50.994;13.650;2023-04-01T12:24:45;2.40;;;0.60;;
76131;SDS011;64877;50.994;13.650;2023-04-01T12:27:26;2.15;;;0.50;;
76131;SDS011;64877;50.994;13.650;2023-04-01T12:30:02;2.75;;;0.60;;
76131;SDS011;64877;50.994;13.650;2023-04-01T12:35:18;1.40;;;0.40;;
76131;SDS011;64877;50.994;13.650;2023-04-01T12:46:05;0.98;;;0.40;;
76131;SDS011;64877;50.994;13.650;2023-04-01T12:48:47;1.73;;;0.60;;
76131;SDS011;64877;50.994;13.650;2023-04-01T13:00:24;1.63;;;0.40;;
76131;SDS011;64877;50.994;13.650;2023-04-01T13:17:42;1.30;;;0.50;;
76131;SDS011;64877;50.994;13.650;2023-04-01T13:19:57;1.33;;;0.40;;
76131;SDS011;64877;50.994;13.650;2023-04-01T13:25:06;0.20;;;0.20;;
76131;SDS011;64877;50.994;13.650;2023-04-01T13:30:30;1.77;;;0.40;;
76131;SDS011;64877;50.994;13.650;2023-04-01T13:33:05;0.47;;;0.20;;
76131;SDS011;64877;50.994;13.650;2023-04-01T13:36:10;0.30;;;0.10;;
76131;SDS011;64877;50.994;13.650;2023-04-01T13:39:06;0.30;;;0.13;;
76131;SDS011;64877;50.994;13.650;2023-04-01T13:44:48;0.95;;;0.28;;
76131;SDS011;64877;50.994;13.650;2023-04-01T13:50:07;1.70;;;0.60;;
76131;SDS011;64877;50.994;13.650;2023-04-01T14:01:06;1.00;;;0.40;;
76131;SDS011;64877;50.994;13.650;2023-04-01T14:04:14;1.13;;;0.40;;
76131;SDS011;64877;50.994;13.650;2023-04-01T14:09:38;1.02;;;0.25;;
76131;SDS011;64877;50.994;13.650;2023-04-01T14:12:21;2.30;;;0.55;;
76131;SDS011;64877;50.994;13.650;2023-04-01T14:20:53;2.00;;;0.43;;
76131;SDS011;64877;50.994;13.650;2023-04-01T14:23:34;1.15;;;0.30;;
76131;SDS011;64877;50.994;13.650;2023-04-01T14:34:15;3.30;;;0.60;;
76131;SDS011;64877;50.994;13.650;2023-04-01T14:39:49;1.02;;;0.38;;
76131;SDS011;64877;50.994;13.650;2023-04-01T14:47:47;1.48;;;0.30;;
76131;SDS011;64877;50.994;13.650;2023-04-01T14:50:43;0.70;;;0.30;;
76131;SDS011;64877;50.994;13.650;2023-04-01T14:53:13;0.90;;;0.40;;
76131;SDS011;64877;50.994;13.650;2023-04-01T14:55:52;1.05;;;0.50;;
76131;SDS011;64877;50.994;13.650;2023-04-01T14:58:21;0.40;;;0.22;;
76131;SDS011;64877;50.994;13.650;2023-04-01T15:00:53;0.50;;;0.20;;
76131;SDS011;64877;50.994;13.650;2023-04-01T15:03:46;0.93;;;0.35;;
76131;SDS011;64877;50.994;13.650;2023-04-01T15:09:17;1.35;;;0.32;;
76131;SDS011;64877;50.994;13.650;2023-04-01T15:17:43;1.08;;;0.43;;
76131;SDS011;64877;50.994;13.650;2023-04-01T15:20:33;1.20;;;0.40;;
76131;SDS011;64877;50.994;13.650;2023-04-01T15:28:44;1.08;;;0.30;;
76131;SDS011;64877;50.994;13.650;2023-04-01T15:39:57;0.55;;;0.30;;
76131;SDS011;64877;50.994;13.650;2023-04-01T15:48:50;0.68;;;0.30;;
76131;SDS011;64877;50.994;13.650;2023-04-01T15:54:21;3.10;;;1.60;;
76131;SDS011;64877;50.994;13.650;2023-04-01T16:02:18;2.03;;;0.77;;
76131;SDS011;64877;50.994;13.650;2023-04-01T16:04:58;1.55;;;0.55;;
76131;SDS011;64877;50.994;13.650;2023-04-01T16:13:00;1.70;;;0.70;;
76131;SDS011;64877;50.994;13.650;2023-04-01T16:18:01;1.30;;;0.47;;
76131;SDS011;64877;50.994;13.650;2023-04-01T16:20:57;1.80;;;0.80;;
76131;SDS011;64877;50.994;13.650;2023-04-01T16:23:58;1.20;;;0.57;;
76131;SDS011;64877;50.994;13.650;2023-04-01T16:26:38;1.88;;;0.93;;
76131;SDS011;64877;50.994;13.650;2023-04-01T16:34:57;2.92;;;1.20;;
76131;SDS011;64877;50.994;13.650;2023-04-01T16:37:33;2.20;;;1.00;;
76131;SDS011;64877;50.994;13.650;2023-04-01T16:42:50;2.13;;;0.85;;
76131;SDS011;64877;50.994;13.650;2023-04-01T16:51:35;1.38;;;0.70;;
76131;SDS011;64877;50.994;13.650;2023-04-01T16:54:36;1.88;;;0.95;;
76131;SDS011;64877;50.994;13.650;2023-04-01T16:57:16;3.10;;;0.93;;
76131;SDS011;64877;50.994;13.650;2023-04-01T17:00:14;2.65;;;1.10;;
76131;SDS011;64877;50.994;13.650;2023-04-01T17:19:05;3.95;;;1.30;;
76131;SDS011;64877;50.994;13.650;2023-04-01T17:35:20;6.43;;;4.15;;
76131;SDS011;64877;50.994;13.650;2023-04-01T17:46:05;6.78;;;3.97;;
76131;SDS011;64877;50.994;13.650;2023-04-01T17:51:06;6.05;;;2.60;;
76131;SDS011;64877;50.994;13.650;2023-04-01T17:53:47;2.97;;;1.77;;
76131;SDS011;64877;50.994;13.650;2023-04-01T17:56:44;4.78;;;2.25;;
76131;SDS011;64877;50.994;13.650;2023-04-01T18:13:33;3.13;;;1.60;;
76131;SDS011;64877;50.994;13.650;2023-04-01T18:23:40;15.43;;;7.30;;
76131;SDS011;64877;50.994;13.650;2023-04-01T18:26:14;10.85;;;4.80;;
76131;SDS011;64877;50.994;13.650;2023-04-01T18:31:51;4.80;;;2.50;;
76131;SDS011;64877;50.994;13.650;2023-04-01T18:37:19;32.33;;;16.65;;
76131;SDS011;64877;50.994;13.650;2023-04-01T18:39:55;16.77;;;10.45;;
76131;SDS011;64877;50.994;13.650;2023-04-01T18:44:56;7.93;;;5.35;;
76131;SDS011;64877;50.994;13.650;2023-04-01T18:47:38;8.68;;;6.30;;
76131;SDS011;64877;50.994;13.650;2023-04-01T18:50:33;7.45;;;4.93;;
76131;SDS011;64877;50.994;13.650;2023-04-01T18:53:14;8.52;;;6.20;;
76131;SDS011;64877;50.994;13.650;2023-04-01T18:55:49;7.43;;;5.93;;
76131;SDS011;64877;50.994;13.650;2023-04-01T19:01:17;4.32;;;2.80;;
76131;SDS011;64877;50.994;13.650;2023-04-01T19:04:52;4.45;;;2.50;;
76131;SDS011;64877;50.994;13.650;2023-04-01T19:06:59;4.28;;;2.50;;
76131;SDS011;64877;50.994;13.650;2023-04-01T19:09:31;3.55;;;2.00;;
76131;SDS011;64877;50.994;13.650;2023-04-01T19:18:08;3.65;;;1.88;;
76131;SDS011;64877;50.994;13.650;2023-04-01T19:20:52;4.78;;;1.90;;
76131;SDS011;64877;50.994;13.650;2023-04-01T19:26:13;3.15;;;1.70;;
76131;SDS011;64877;50.994;13.650;2023-04-01T19:32:11;3.53;;;1.80;;
76131;SDS011;64877;50.994;13.650;2023-04-01T19:37:45;3.33;;;2.10;;
76131;SDS011;64877;50.994;13.650;2023-04-01T19:45:26;6.30;;;3.33;;
76131;SDS011;64877;50.994;13.650;2023-04-01T19:51:25;6.68;;;3.22;;
76131;SDS011;64877;50.994;13.650;2023-04-01T19:56:19;6.00;;;3.47;;
76131;SDS011;64877;50.994;13.650;2023-04-01T19:58:52;9.45;;;4.30;;
76131;SDS011;64877;50.994;13.650;2023-04-01T20:04:17;10.93;;;6.20;;
76131;SDS011;64877;50.994;13.650;2023-04-01T20:07:09;7.70;;;4.22;;
76131;SDS011;64877;50.994;13.650;2023-04-01T20:12:48;26.92;;;15.57;;
76131;SDS011;64877;50.994;13.650;2023-04-01T20:17:57;18.30;;;10.05;;
76131;SDS011;64877;50.994;13.650;2023-04-01T20:20:26;11.52;;;7.72;;
76131;SDS011;64877;50.994;13.650;2023-04-01T20:23:16;7.30;;;4.82;;
76131;SDS011;64877;50.994;13.650;2023-04-01T20:25:57;7.00;;;3.70;;
76131;SDS011;64877;50.994;13.650;2023-04-01T20:28:32;6.30;;;3.55;;
76131;SDS011;64877;50.994;13.650;2023-04-01T20:42:39;8.50;;;5.40;;
76131;SDS011;64877;50.994;13.650;2023-04-01T21:01:54;8.93;;;4.72;;
76131;SDS011;64877;50.994;13.650;2023-04-01T21:23:39;9.45;;;5.90;;
76131;SDS011;64877;50.994;13.650;2023-04-01T21:35:05;6.45;;;3.97;;
76131;SDS011;64877;50.994;13.650;2023-04-01T21:46:21;2.97;;;1.95;;
76131;SDS011;64877;50.994;13.650;2023-04-01T22:03:44;7.85;;;3.20;;
76131;SDS011;64877;50.994;13.650;2023-04-01T22:06:17;4.30;;;3.13;;
76131;SDS011;64877;50.994;13.650;2023-04-01T22:08:52;6.65;;;3.60;;
76131;SDS011;64877;50.994;13.650;2023-04-01T22:12:03;3.75;;;2.35;;
76131;SDS011;64877;50.994;13.650;2023-04-01T22:17:15;3.22;;;1.40;;
76131;SDS011;64877;50.994;13.650;2023-04-01T22:25:56;3.65;;;2.00;;
76131;SDS011;64877;50.994;13.650;2023-04-01T22:28:29;3.00;;;1.92;;
76131;SDS011;64877;50.994;13.650;2023-04-01T22:31:03;2.53;;;1.80;;
76131;SDS011;64877;50.994;13.650;2023-04-01T22:41:25;4.68;;;1.75;;
76131;SDS011;64877;50.994;13.650;2023-04-01T22:44:04;2.72;;;1.50;;
76131;SDS011;64877;50.994;13.650;2023-04-01T22:46:44;3.10;;;1.60;;
76131;SDS011;64877;50.994;13.650;2023-04-01T22:52:12;4.20;;;2.13;;
76131;SDS011;64877;50.994;13.650;2023-04-01T22:54:46;3.70;;;2.17;;
76131;SDS011;64877;50.994;13.650;2023-04-01T22:57:28;2.70;;;1.80;;
76131;SDS011;64877;50.994;13.650;2023-04-01T23:02:36;3.75;;;2.20;;
76131;SDS011;64877;50.994;13.650;2023-04-01T23:05:05;2.70;;;1.98;;
76131;SDS011;64877;50.994;13.650;2023-04-01T23:10:39;4.30;;;2.25;;
76131;SDS011;64877;50.994;13.650;2023-04-01T23:13:22;3.28;;;1.98;;
76131;SDS011;64877;50.994;13.650;2023-04-01T23:15:54;4.57;;;2.30;;
76131;SDS011;64877;50.994;13.650;2023-04-01T23:18:32;4.60;;;2.65;;
76131;SDS011;64877;50.994;13.650;2023-04-01T23:29:30;6.03;;;2.97;;
76131;SDS011;64877;50.994;13.650;2023-04-01T23:32:02;6.00;;;2.97;;
76131;SDS011;64877;50.994;13.650;2023-04-01T23:34:37;4.55;;;2.55;;
76131;SDS011;64877;50.994;13.650;2023-04-01T23:37:12;4.60;;;2.38;;
76131;SDS011;64877;50.994;13.650;2023-04-01T23:39:41;4.68;;;2.67;;
76131;SDS011;64877;50.994;13.650;2023-04-01T23:42:13;3.58;;;2.55;;
76131;SDS011;64877;50.994;13.650;2023-04-01T23:44:55;3.53;;;2.47;;
76131;SDS011;64877;50.994;13.650;2023-04-01T23:47:28;3.92;;;2.67;;
76131;SDS011;64877;50.994;13.650;2023-04-01T23:49:57;3.92;;;2.35;;
76131;SDS011;64877;50.994;13.650;2023-04-01T23:52:25;4.15;;;2.38;;
76131;SDS011;64877;50.994;13.650;2023-04-01T23:54:54;4.75;;;2.60;;
76131;SDS011;64877;50.994;13.650;2023-04-01T23:57:26;3.85;;;2.45;;
76131;SDS011;64877;50.994;13.650;2023-04-01T23:59:59;4.57;;;2.72;;
